Time;durP1;ratioP1;P1;durP2;ratioP2;P2;SDS_P1;SDS_P2;PMS_P1;PMS_P2;Temp;Humidity;BMP_temperature;BMP_pressure;BME280_temperature;BME280_humidity;BME280_pressure;Samples;Min_cycle;Max_cycle;Signal;HPM_P1;HPM_P2
2023/12/17 00:01:46;;;;;;;9.52;2.90;;;;;;;-146.27;86.16;32140.75;5130341;27;20027;-67
2023/12/17 00:04:14;;;;;;;6.20;2.72;;;;;;;-146.27;86.29;32134.81;5123787;27;20031;-68
2023/12/17 00:06:41;;;;;;;12.13;3.05;;;;;;;-146.27;85.99;32198.28;5104373;27;20027;-69
2023/12/17 00:09:09;;;;;;;10.15;3.45;;;;;;;-146.27;85.71;32105.06;5110436;27;20055;-68
2023/12/17 00:11:42;;;;;;;9.73;3.92;;;;;;;-146.27;85.31;32065.38;5125245;27;20035;-68
2023/12/17 00:14:12;;;;;;;11.50;3.28;;;;;;;-146.27;86.23;32186.38;5130221;27;20042;-68
2023/12/17 00:16:39;;;;;;;7.18;2.50;;;;;;;-146.27;85.90;32099.09;5122014;27;20613;-68
2023/12/17 00:19:06;;;;;;;5.78;2.90;;;;;;;-146.27;85.18;32118.94;5123525;27;20039;-68
2023/12/17 00:21:35;;;;;;;6.53;3.28;;;;;;;-146.27;87.22;32247.88;5118274;27;20054;-68
2023/12/17 00:24:01;;;;;;;7.45;2.95;;;;;;;-146.27;86.27;32116.97;5118191;27;20035;-68
2023/12/17 00:26:26;;;;;;;15.00;4.13;;;;;;;-146.27;86.14;32148.69;5120631;27;20387;-68
2023/12/17 00:28:52;;;;;;;9.32;3.30;;;;;;;-146.27;86.33;32202.25;5122650;27;20023;-68
2023/12/17 00:31:17;;;;;;;5.38;2.95;;;;;;;-146.27;85.95;32190.34;5123865;27;20066;-68
2023/12/17 00:33:46;;;;;;;6.22;3.00;;;;;;;-146.27;85.56;32118.94;5122549;27;20147;-68
2023/12/17 00:36:14;;;;;;;7.13;3.22;;;;;;;-146.27;85.70;32093.16;5125931;27;20030;-69
2023/12/17 00:38:39;;;;;;;6.53;3.10;;;;;;;-146.27;85.43;32128.88;5123891;27;20031;-69
2023/12/17 00:41:05;;;;;;;13.65;3.33;;;;;;;-146.27;85.55;32172.50;5125682;27;20044;-69
2023/12/17 00:43:30;;;;;;;4.82;3.08;;;;;;;-146.27;87.04;32224.06;5114656;27;20031;-69
2023/12/17 00:45:56;;;;;;;10.75;3.45;;;;;;;-146.27;85.24;32124.91;5118108;27;20472;-69
2023/12/17 00:48:23;;;;;;;7.10;3.22;;;;;;;-146.27;84.83;32116.97;5128323;27;20033;-68
2023/12/17 00:50:52;;;;;;;8.07;3.00;;;;;;;-146.27;85.42;32172.50;5125931;27;20023;-69
2023/12/17 00:53:18;;;;;;;6.97;2.80;;;;;;;-146.27;85.04;32103.06;5120083;27;20062;-68
2023/12/17 00:55:43;;;;;;;6.25;3.05;;;;;;;-146.27;85.13;32152.66;5125095;27;20451;-68
2023/12/17 00:58:10;;;;;;;7.80;2.92;;;;;;;-146.27;85.64;32218.13;5129022;27;20019;-69
2023/12/17 01:00:35;;;;;;;9.30;2.95;;;;;;;-146.27;85.46;32156.63;5127978;27;20398;-69
2023/12/17 01:03:02;;;;;;;8.50;2.90;;;;;;;-146.27;85.55;32184.41;5127359;27;20023;-68
2023/12/17 01:05:36;;;;;;;7.57;3.00;;;;;;;-146.27;84.58;32055.47;5118244;27;20889;-69
2023/12/17 01:08:01;;;;;;;7.60;3.38;;;;;;;-146.27;84.53;32103.06;5120327;27;20062;-68
2023/12/17 01:10:27;;;;;;;10.57;3.40;;;;;;;-146.27;85.32;32118.94;5127939;27;20049;-68
2023/12/17 01:12:53;;;;;;;8.55;3.17;;;;;;;-146.27;85.32;32172.50;5128180;27;20015;-68
2023/12/17 01:15:18;;;;;;;7.55;3.22;;;;;;;-146.27;84.65;32079.28;5130484;27;20130;-69
2023/12/17 01:17:44;;;;;;;10.23;3.15;;;;;;;-146.27;84.56;32097.13;5116208;27;20031;-67
2023/12/17 01:20:10;;;;;;;6.85;3.10;;;;;;;-146.27;84.59;32069.34;5126954;27;20483;-68
2023/12/17 01:22:35;;;;;;;7.63;3.20;;;;;;;-146.27;84.70;32118.94;5118006;28;20088;-67
2023/12/17 01:25:01;;;;;;;5.93;3.00;;;;;;;-146.27;86.05;32289.53;5130762;27;20023;-69
2023/12/17 01:27:26;;;;;;;9.02;4.03;;;;;;;-146.27;85.29;32226.06;5123578;27;20189;-69
2023/12/17 01:29:52;;;;;;;12.30;3.03;;;;;;;-146.27;84.42;32113.00;5125823;28;20424;-68
2023/12/17 01:32:17;;;;;;;4.50;2.80;;;;;;;-146.27;84.52;32170.53;5124296;27;20031;-68
2023/12/17 01:34:43;;;;;;;7.95;2.70;;;;;;;-146.27;84.76;32202.25;5128344;27;20031;-68
2023/12/17 01:37:08;;;;;;;7.63;2.60;;;;;;;-146.27;85.11;32176.47;5125075;27;20799;-68
2023/12/17 01:39:34;;;;;;;7.55;2.40;;;;;;;-146.27;85.91;32323.25;5125298;27;20395;-68
2023/12/17 01:41:59;;;;;;;6.45;2.42;;;;;;;-146.27;85.12;32208.22;5128467;27;20504;-68
2023/12/17 01:44:25;;;;;;;5.20;1.92;;;;;;;-146.27;84.01;32128.88;5128892;27;20503;-68
2023/12/17 01:46:51;;;;;;;3.25;1.73;;;;;;;-146.27;84.85;32305.41;5128563;27;20720;-68
2023/12/17 01:49:16;;;;;;;7.20;1.60;;;;;;;-146.27;83.93;32188.38;5128979;27;20015;-68
2023/12/17 01:51:42;;;;;;;5.07;1.80;;;;;;;-146.27;84.07;32251.84;5121540;28;20383;-68
2023/12/17 01:54:09;;;;;;;6.00;2.17;;;;;;;-146.27;83.14;32192.34;5128780;27;20035;-68
2023/12/17 01:56:34;;;;;;;6.10;1.70;;;;;;;-146.27;82.57;32136.78;5129105;27;20065;-67
2023/12/17 01:59:01;;;;;;;5.82;1.60;;;;;;;-146.27;82.50;32142.75;5123936;27;20054;-68
2023/12/17 02:01:27;;;;;;;3.55;1.50;;;;;;;-146.27;81.83;32061.44;5122945;27;20024;-68
2023/12/17 02:03:53;;;;;;;4.90;1.55;;;;;;;-146.27;82.34;32172.50;5122872;27;20058;-68
2023/12/17 02:06:18;;;;;;;6.43;1.73;;;;;;;-146.27;82.60;32241.94;5125309;27;20019;-69
2023/12/17 02:08:44;;;;;;;4.57;1.50;;;;;;;-146.27;82.84;32243.91;5132016;27;20027;-69
2023/12/17 02:11:09;;;;;;;4.88;1.40;;;;;;;-146.27;82.66;32144.72;5134518;27;20065;-69
2023/12/17 02:13:35;;;;;;;5.10;1.52;;;;;;;-146.27;82.48;32168.53;5134047;27;20041;-69
2023/12/17 02:16:00;;;;;;;12.90;1.60;;;;;;;-146.27;81.62;32057.47;5133660;27;20034;-66
2023/12/17 02:18:26;;;;;;;6.35;2.25;;;;;;;-146.27;82.93;32156.63;5120838;27;20305;-69
2023/12/17 02:20:53;;;;;;;6.95;1.63;;;;;;;-146.27;82.47;32091.19;5132922;27;20410;-69
2023/12/17 02:23:19;;;;;;;5.85;1.45;;;;;;;-146.27;82.55;32116.97;5120162;27;20477;-69
2023/12/17 02:25:45;;;;;;;7.20;1.48;;;;;;;-146.27;82.82;32168.53;5124414;27;20173;-69
2023/12/17 02:28:10;;;;;;;3.45;1.73;;;;;;;-146.27;82.12;32057.47;5121964;27;20090;-69
2023/12/17 02:30:36;;;;;;;6.60;1.40;;;;;;;-146.27;83.72;32172.50;5129295;27;20110;-68
2023/12/17 02:33:01;;;;;;;5.88;1.55;;;;;;;-146.27;82.47;32087.22;5130097;27;20037;-68
2023/12/17 02:35:27;;;;;;;5.80;1.90;;;;;;;-146.27;82.98;32132.84;5124169;27;20765;-69
2023/12/17 02:37:52;;;;;;;5.88;2.13;;;;;;;-146.27;82.60;32122.91;5128711;27;20023;-69
2023/12/17 02:40:18;;;;;;;10.18;2.17;;;;;;;-146.27;82.58;32132.84;5126895;27;20505;-69
2023/12/17 02:42:44;;;;;;;7.78;2.30;;;;;;;-146.27;83.80;32184.41;5121901;27;20461;-69
2023/12/17 02:45:10;;;;;;;8.68;2.63;;;;;;;-146.27;84.01;32188.38;5130226;27;20022;-69
2023/12/17 02:47:35;;;;;;;13.95;2.45;;;;;;;-146.27;83.19;32146.72;5130226;27;20035;-69
2023/12/17 02:50:01;;;;;;;4.68;1.90;;;;;;;-146.27;83.58;32176.47;5119264;27;20506;-69
2023/12/17 02:52:27;;;;;;;11.75;2.28;;;;;;;-146.27;83.39;32120.94;5133351;27;20027;-69
2023/12/17 02:54:52;;;;;;;4.90;1.98;;;;;;;-146.27;83.85;32208.22;5121150;27;20023;-69
2023/12/17 02:57:18;;;;;;;4.65;1.45;;;;;;;-146.27;82.57;32061.44;5127570;27;20057;-68
2023/12/17 02:59:44;;;;;;;8.55;1.55;;;;;;;-146.27;82.42;32065.38;5117241;27;20118;-69
2023/12/17 03:02:10;;;;;;;2.00;1.33;;;;;;;-146.27;83.05;32120.94;5131375;27;20081;-67
2023/12/17 03:04:35;;;;;;;3.92;1.65;;;;;;;-146.27;83.39;32180.44;5132475;27;20749;-68
2023/12/17 03:07:01;;;;;;;7.55;1.73;;;;;;;-146.27;82.28;32021.75;5130098;27;20539;-69
2023/12/17 03:09:26;;;;;;;6.30;1.80;;;;;;;-146.27;83.93;32232.00;5120414;27;20475;-69
2023/12/17 03:11:52;;;;;;;7.88;2.03;;;;;;;-146.27;83.51;32158.63;5128718;27;20059;-68
2023/12/17 03:14:18;;;;;;;7.50;1.88;;;;;;;-146.27;82.82;32136.78;5132598;27;20025;-68
2023/12/17 03:16:43;;;;;;;12.15;3.47;;;;;;;-146.27;84.81;32212.16;5118037;27;20533;-68
2023/12/17 03:19:09;;;;;;;15.82;3.03;;;;;;;-146.27;84.69;32198.28;5125119;27;20487;-68
2023/12/17 03:21:34;;;;;;;10.00;2.45;;;;;;;-146.27;85.86;32279.63;5132315;27;20077;-69
2023/12/17 03:24:00;;;;;;;13.52;3.40;;;;;;;-146.27;85.70;32232.00;5131851;27;20079;-68
2023/12/17 03:26:25;;;;;;;16.83;3.28;;;;;;;-146.27;85.27;32216.13;5126958;27;20062;-68
2023/12/17 03:28:51;;;;;;;16.75;2.95;;;;;;;-146.27;85.42;32245.91;5130691;27;20019;-69
2023/12/17 03:31:16;;;;;;;7.70;2.53;;;;;;;-146.27;85.23;32178.44;5123888;27;20146;-69
2023/12/17 03:33:43;;;;;;;13.20;2.85;;;;;;;-146.27;86.26;32382.75;5121892;27;20104;-69
2023/12/17 03:36:16;;;;;;;16.15;3.40;;;;;;;-146.27;85.22;32168.53;5126309;27;20558;-69
2023/12/17 03:38:43;;;;;;;15.30;2.42;;;;;;;-146.27;84.14;32150.69;5128782;27;20110;-69
2023/12/17 03:41:28;;;;;;;9.93;2.40;;;;;;;-146.27;84.80;32180.44;5123872;27;20031;-69
2023/12/17 03:43:55;;;;;;;17.27;3.17;;;;;;;-146.27;84.53;32172.50;5130872;27;20034;-69
2023/12/17 03:46:21;;;;;;;10.10;2.60;;;;;;;-146.27;85.79;32269.69;5131319;27;20043;-69
2023/12/17 03:48:47;;;;;;;12.05;3.25;;;;;;;-146.27;84.37;32150.69;5121203;27;20578;-69
2023/12/17 03:51:13;;;;;;;19.05;3.33;;;;;;;-146.27;85.32;32220.09;5132167;27;20027;-69
2023/12/17 03:53:38;;;;;;;14.35;3.85;;;;;;;-146.27;86.10;32347.06;5123916;27;20095;-68
2023/12/17 03:56:13;;;;;;;19.00;3.00;;;;;;;-146.27;86.43;32353.00;5126941;27;20417;-70
2023/12/17 03:58:39;;;;;;;15.18;3.47;;;;;;;-146.27;86.61;32374.81;5123888;27;20134;-69
2023/12/17 04:01:06;;;;;;;16.13;2.67;;;;;;;-146.27;85.74;32263.75;5123359;27;20093;-69
2023/12/17 04:03:32;;;;;;;14.85;2.90;;;;;;;-146.27;86.54;32378.78;5127864;27;20019;-73
2023/12/17 04:05:59;;;;;;;14.55;4.18;;;;;;;-146.27;86.24;32303.41;5129871;27;20538;-69
2023/12/17 04:08:25;;;;;;;11.13;3.22;;;;;;;-146.27;86.98;32319.28;5128094;27;20098;-68
2023/12/17 04:10:51;;;;;;;10.73;3.70;;;;;;;-146.27;87.55;32414.50;5129783;27;20111;-68
2023/12/17 04:13:17;;;;;;;10.88;3.28;;;;;;;-146.27;86.86;32398.63;5121689;27;20394;-68
2023/12/17 04:15:43;;;;;;;21.88;4.78;;;;;;;-146.27;86.87;32347.06;5123533;27;20022;-68
2023/12/17 04:18:08;;;;;;;16.70;3.85;;;;;;;-146.27;86.37;32325.25;5124393;27;20482;-68
2023/12/17 04:20:34;;;;;;;17.80;4.25;;;;;;;-146.27;86.72;32353.00;5128444;27;20046;-68
2023/12/17 04:22:59;;;;;;;16.98;4.90;;;;;;;-146.27;87.13;32384.75;5126834;27;20102;-69
2023/12/17 04:25:28;;;;;;;16.33;4.68;;;;;;;-146.27;86.32;32291.50;5120556;27;20039;-68
2023/12/17 04:27:53;;;;;;;21.35;4.57;;;;;;;-146.27;87.26;32356.97;5127089;27;20031;-69
2023/12/17 04:30:19;;;;;;;21.77;5.22;;;;;;;-146.27;86.69;32255.81;5125731;27;20073;-69
2023/12/17 04:32:44;;;;;;;24.05;4.47;;;;;;;-146.27;88.58;32464.09;5129148;27;20326;-69
2023/12/17 04:35:10;;;;;;;12.05;4.40;;;;;;;-146.27;88.00;32384.75;5127196;27;20030;-68
2023/12/17 04:37:36;;;;;;;15.38;4.28;;;;;;;-146.27;88.15;32380.78;5121910;27;20424;-68
2023/12/17 04:40:03;;;;;;;15.18;4.85;;;;;;;-146.27;87.16;32317.31;5115736;27;20039;-68
2023/12/17 04:42:29;;;;;;;16.60;4.28;;;;;;;-146.27;87.14;32454.16;5126565;27;20026;-70
2023/12/17 04:44:54;;;;;;;17.50;3.97;;;;;;;-146.27;86.88;32327.22;5130018;27;20039;-69
2023/12/17 04:47:20;;;;;;;12.35;4.13;;;;;;;-146.27;86.93;32341.09;5129643;27;20027;-69
2023/12/17 04:49:46;;;;;;;18.27;3.38;;;;;;;-146.27;87.86;32446.25;5124023;27;20046;-69
2023/12/17 04:52:12;;;;;;;14.98;3.92;;;;;;;-146.27;87.27;32345.06;5129857;27;20324;-69
2023/12/17 04:54:37;;;;;;;18.83;4.47;;;;;;;-146.27;87.46;32428.38;5124720;27;20035;-69
2023/12/17 04:57:04;;;;;;;13.75;4.57;;;;;;;-146.27;87.95;32412.50;5122221;27;20027;-69
2023/12/17 04:59:29;;;;;;;29.15;5.32;;;;;;;-146.27;87.61;32420.44;5126063;27;20033;-68
2023/12/17 05:01:55;;;;;;;27.88;6.07;;;;;;;-146.27;88.16;32430.38;5125767;27;20168;-68
2023/12/17 05:04:20;;;;;;;14.90;5.10;;;;;;;-146.27;87.45;32376.81;5129466;27;20459;-67
2023/12/17 05:06:46;;;;;;;24.95;5.05;;;;;;;-146.27;88.21;32424.41;5128863;27;20042;-69
2023/12/17 05:09:12;;;;;;;22.98;5.00;;;;;;;-146.27;89.29;32485.91;5123732;27;20091;-69
2023/12/17 05:11:37;;;;;;;23.80;5.93;;;;;;;-146.27;89.87;32541.47;5124426;27;20054;-69
2023/12/17 05:14:03;;;;;;;19.13;4.63;;;;;;;-146.27;89.58;32452.19;5126938;27;20487;-68
2023/12/17 05:16:28;;;;;;;27.15;5.47;;;;;;;-146.27;89.90;32446.25;5116188;28;20476;-68
2023/12/17 05:18:53;;;;;;;21.95;5.32;;;;;;;-146.27;89.39;32477.97;5114847;27;20027;-68
2023/12/17 05:21:19;;;;;;;29.38;5.85;;;;;;;-146.27;89.96;32458.13;5122171;27;20391;-68
2023/12/17 05:23:45;;;;;;;28.50;4.85;;;;;;;-146.27;88.86;32392.69;5114191;28;20468;-67
2023/12/17 05:26:10;;;;;;;23.98;6.50;;;;;;;-146.27;88.52;32428.38;5121169;27;20019;-68
2023/12/17 05:28:37;;;;;;;31.42;5.05;;;;;;;-146.27;90.60;32549.38;5124982;27;20027;-69
2023/12/17 05:31:04;;;;;;;23.65;5.22;;;;;;;-146.27;89.13;32438.31;5128739;27;20023;-68
2023/12/17 05:33:30;;;;;;;25.73;5.25;;;;;;;-146.27;88.94;32392.69;5117659;28;20069;-69
2023/12/17 05:35:55;;;;;;;33.72;5.78;;;;;;;-146.27;88.42;32430.38;5122866;27;20034;-69
2023/12/17 05:38:21;;;;;;;21.88;5.28;;;;;;;-146.27;89.35;32470.03;5134087;27;20029;-69
2023/12/17 05:40:47;;;;;;;22.75;6.55;;;;;;;-146.27;89.69;32442.28;5126738;27;20132;-68
2023/12/17 05:43:12;;;;;;;35.95;6.65;;;;;;;-146.27;89.19;32458.13;5128213;27;20481;-68
2023/12/17 05:45:38;;;;;;;26.65;5.22;;;;;;;-146.27;89.36;32477.97;5127773;27;20369;-69
2023/12/17 05:48:03;;;;;;;29.38;6.07;;;;;;;-146.27;89.54;32384.75;5131248;27;20111;-69
2023/12/17 05:50:29;;;;;;;30.50;6.93;;;;;;;-146.27;90.70;32537.50;5131205;27;20419;-68
2023/12/17 05:52:54;;;;;;;26.90;6.00;;;;;;;-146.27;88.70;32402.59;5134385;27;20062;-68
2023/12/17 05:55:20;;;;;;;22.15;6.07;;;;;;;-146.27;88.64;32386.72;5132434;27;20019;-68
2023/12/17 05:57:49;;;;;;;28.02;6.43;;;;;;;-146.27;89.64;32470.03;5129728;27;20034;-67
2023/12/17 06:00:16;;;;;;;24.25;5.90;;;;;;;-146.27;89.59;32428.38;5129051;27;20015;-68
2023/12/17 06:02:42;;;;;;;25.83;6.88;;;;;;;-146.27;89.51;32497.81;5127105;27;20027;-70
2023/12/17 06:05:07;;;;;;;24.17;7.68;;;;;;;-146.27;89.36;32479.97;5129751;27;20031;-69
2023/12/17 06:07:33;;;;;;;18.35;6.13;;;;;;;-146.27;88.75;32491.88;5121560;27;20038;-67
2023/12/17 06:09:59;;;;;;;29.30;7.10;;;;;;;-146.27;89.52;32525.59;5130584;27;20394;-69
2023/12/17 06:12:24;;;;;;;20.58;7.05;;;;;;;-146.27;89.37;32557.31;5130919;27;20051;-69
2023/12/17 06:14:50;;;;;;;24.23;6.80;;;;;;;-146.27;89.22;32474.00;5125763;27;20375;-68
2023/12/17 06:17:15;;;;;;;19.17;6.78;;;;;;;-146.27;89.26;32539.47;5117782;27;20026;-69
2023/12/17 06:19:40;;;;;;;22.65;6.53;;;;;;;-146.27;89.78;32610.88;5121181;27;21890;-69
2023/12/17 06:22:06;;;;;;;19.02;6.32;;;;;;;-146.27;88.33;32470.03;5131849;27;20039;-67
2023/12/17 06:24:31;;;;;;;23.77;6.28;;;;;;;-146.27;87.88;32493.84;5123801;27;20068;-70
2023/12/17 06:26:57;;;;;;;22.73;6.00;;;;;;;-146.27;87.66;32464.09;5128666;27;20034;-69
2023/12/17 06:29:22;;;;;;;18.35;5.22;;;;;;;-146.27;88.01;32616.84;5131927;27;20637;-70
2023/12/17 06:31:48;;;;;;;16.38;5.43;;;;;;;-146.27;88.61;32644.63;5129776;27;20551;-69
2023/12/17 06:34:13;;;;;;;20.58;8.15;;;;;;;-146.27;87.05;32458.13;5126808;27;20116;-70
2023/12/17 06:36:39;;;;;;;18.55;7.93;;;;;;;-146.27;86.91;32499.81;5130030;27;20039;-68
2023/12/17 06:39:09;;;;;;;27.55;9.32;;;;;;;-146.27;88.24;32585.09;5129811;27;20424;-69
2023/12/17 06:41:36;;;;;;;24.02;9.73;;;;;;;-146.27;88.25;32571.22;5122698;27;20034;-69
2023/12/17 06:44:02;;;;;;;34.80;10.23;;;;;;;-146.27;87.67;32537.50;5128546;27;20075;-70
2023/12/17 06:46:27;;;;;;;27.27;11.35;;;;;;;-146.27;88.47;32688.25;5124270;27;20592;-69
2023/12/17 06:48:53;;;;;;;25.98;12.20;;;;;;;-146.27;89.28;32598.97;5126208;27;20625;-69
2023/12/17 06:51:19;;;;;;;34.70;14.63;;;;;;;-146.27;88.35;32575.19;5123420;27;20662;-67
2023/12/17 06:53:44;;;;;;;34.40;13.95;;;;;;;-146.27;87.13;32539.47;5126617;27;20027;-69
2023/12/17 06:56:10;;;;;;;38.38;16.67;;;;;;;-146.27;87.05;32454.16;5130009;27;20317;-69
2023/12/17 06:58:36;;;;;;;38.22;16.08;;;;;;;-146.27;87.40;32497.81;5127366;27;20020;-69
2023/12/17 07:01:01;;;;;;;40.42;14.57;;;;;;;-146.27;87.01;32436.31;5129284;27;20041;-69
2023/12/17 07:03:27;;;;;;;33.88;15.90;;;;;;;-146.27;87.06;32489.88;5130754;27;20027;-69
2023/12/17 07:05:52;;;;;;;31.23;16.60;;;;;;;-146.27;86.20;32442.28;5133665;27;20023;-69
2023/12/17 07:08:18;;;;;;;33.40;16.88;;;;;;;-146.27;86.40;32462.09;5123158;27;20019;-69
2023/12/17 07:10:44;;;;;;;37.28;16.92;;;;;;;-146.27;86.12;32454.16;5123676;27;20110;-69
2023/12/17 07:13:10;;;;;;;35.25;16.63;;;;;;;-146.27;86.84;32497.81;5129010;27;20037;-70
2023/12/17 07:15:36;;;;;;;35.50;16.27;;;;;;;-146.27;86.30;32501.78;5127052;27;20038;-69
2023/12/17 07:18:01;;;;;;;34.25;17.17;;;;;;;-146.27;86.36;32513.69;5128580;27;20087;-69
2023/12/17 07:20:27;;;;;;;32.08;16.00;;;;;;;-146.27;85.90;32477.97;5125034;27;20055;-68
2023/12/17 07:22:52;;;;;;;36.60;16.13;;;;;;;-146.27;87.78;32632.72;5125156;27;20096;-68
2023/12/17 07:25:19;;;;;;;32.30;15.10;;;;;;;-146.27;86.74;32521.63;5129477;27;20020;-68
2023/12/17 07:27:44;;;;;;;27.38;14.23;;;;;;;-146.27;86.75;32505.75;5127677;27;20027;-70
2023/12/17 07:30:10;;;;;;;28.42;13.45;;;;;;;-146.27;87.09;32595.03;5130527;27;20019;-69
2023/12/17 07:32:36;;;;;;;22.67;12.98;;;;;;;-146.27;87.46;32640.66;5125015;27;20494;-69
2023/12/17 07:35:03;;;;;;;29.83;14.48;;;;;;;-146.27;86.69;32569.22;5124321;27;20493;-69
2023/12/17 07:37:28;;;;;;;23.77;12.77;;;;;;;-146.27;88.42;32642.63;5127497;27;20027;-69
2023/12/17 07:39:54;;;;;;;23.42;12.68;;;;;;;-146.27;87.50;32545.44;5125798;27;20305;-68
2023/12/17 07:42:19;;;;;;;24.05;12.82;;;;;;;-146.27;86.33;32485.91;5115463;27;20585;-70
2023/12/17 07:44:45;;;;;;;29.92;13.38;;;;;;;-146.27;87.12;32577.16;5123377;27;20030;-70
2023/12/17 07:47:11;;;;;;;27.58;13.48;;;;;;;-146.27;87.16;32604.94;5125599;27;20130;-69
2023/12/17 07:49:39;;;;;;;32.55;12.80;;;;;;;-146.27;86.91;32513.69;5131339;27;20512;-68
2023/12/17 07:52:04;;;;;;;24.17;12.05;;;;;;;-146.27;88.81;32708.09;5130188;27;20505;-69
2023/12/17 07:54:30;;;;;;;19.38;11.38;;;;;;;-146.27;88.12;32636.69;5123298;27;20031;-69
2023/12/17 07:56:55;;;;;;;25.20;12.85;;;;;;;-146.27;88.29;32708.09;5126832;27;20031;-68
2023/12/17 07:59:21;;;;;;;25.02;11.55;;;;;;;-146.27;87.42;32632.72;5128492;27;20019;-69
2023/12/17 08:01:46;;;;;;;26.00;12.32;;;;;;;-146.27;87.00;32581.13;5128796;27;20027;-70
2023/12/17 08:04:13;;;;;;;23.40;11.93;;;;;;;-146.27;87.56;32644.63;5119618;27;20015;-70
2023/12/17 08:06:39;;;;;;;29.92;11.60;;;;;;;-146.27;88.58;32723.97;5123859;27;20753;-70
2023/12/17 08:09:04;;;;;;;19.52;11.77;;;;;;;-146.27;87.13;32608.91;5126670;27;20016;-70
2023/12/17 08:11:30;;;;;;;24.25;12.23;;;;;;;-146.27;88.33;32755.69;5114269;27;20357;-69
2023/12/17 08:13:55;;;;;;;23.70;10.63;;;;;;;-146.27;87.59;32640.66;5124710;27;20053;-69
2023/12/17 08:16:21;;;;;;;23.40;11.18;;;;;;;-146.27;87.37;32662.47;5127937;27;20198;-71
2023/12/17 08:18:46;;;;;;;23.42;11.27;;;;;;;-146.27;88.17;32692.22;5129273;27;20031;-69
2023/12/17 08:21:12;;;;;;;25.92;11.18;;;;;;;-146.27;87.74;32694.22;5124926;27;20983;-70
2023/12/17 08:23:37;;;;;;;28.67;11.77;;;;;;;-146.27;87.36;32664.44;5125740;27;20913;-70
2023/12/17 08:26:03;;;;;;;30.02;10.73;;;;;;;-146.27;86.86;32680.31;5117862;27;20577;-70
2023/12/17 08:28:28;;;;;;;27.98;10.90;;;;;;;-146.27;87.75;32735.88;5122103;27;20407;-70
2023/12/17 08:30:54;;;;;;;23.48;11.77;;;;;;;-146.27;87.92;32712.06;5121082;27;20035;-69
2023/12/17 08:33:19;;;;;;;20.15;10.90;;;;;;;-146.27;86.86;32628.75;5122187;27;20546;-69
2023/12/17 08:35:45;;;;;;;27.30;12.30;;;;;;;-146.27;88.08;32757.69;5120813;27;20030;-68
2023/12/17 08:38:11;;;;;;;23.02;13.20;;;;;;;-146.27;88.47;32763.63;5122465;27;20027;-69
2023/12/17 08:40:39;;;;;;;27.13;12.45;;;;;;;-146.27;86.75;32688.25;5120937;27;20479;-69
2023/12/17 08:43:09;;;;;;;30.05;13.25;;;;;;;-146.27;87.38;32716.03;5124155;27;20538;-70
2023/12/17 08:45:35;;;;;;;33.20;13.52;;;;;;;-146.27;88.15;32795.38;5124673;27;20078;-70
2023/12/17 08:48:01;;;;;;;22.38;12.55;;;;;;;-146.27;87.28;32676.34;5119371;27;20023;-69
2023/12/17 08:50:27;;;;;;;28.25;12.38;;;;;;;-146.27;88.55;32882.66;5128402;27;20514;-69
2023/12/17 08:52:53;;;;;;;28.13;14.13;;;;;;;-146.27;87.64;32787.44;5121556;27;20119;-69
2023/12/17 08:55:19;;;;;;;32.38;14.63;;;;;;;-146.27;87.17;32757.69;5126890;27;20683;-70
2023/12/17 08:57:45;;;;;;;26.98;15.10;;;;;;;-146.27;87.18;32716.03;5124983;27;20042;-70
2023/12/17 09:00:12;;;;;;;28.48;15.05;;;;;;;-146.27;87.38;32807.28;5120649;27;20031;-68
2023/12/17 09:02:37;;;;;;;32.65;15.88;;;;;;;-146.27;86.75;32650.56;5118728;27;20188;-68
2023/12/17 09:05:03;;;;;;;28.00;15.50;;;;;;;-146.27;86.34;32672.38;5119780;27;20110;-70
2023/12/17 09:07:28;;;;;;;34.28;15.40;;;;;;;-146.27;86.72;32787.44;5118515;27;20065;-70
2023/12/17 09:09:54;;;;;;;28.98;15.32;;;;;;;-146.27;87.38;32803.31;5118124;27;20021;-70
2023/12/17 09:12:19;;;;;;;28.85;16.75;;;;;;;-146.27;87.38;32755.69;5117643;27;20035;-69
2023/12/17 09:14:45;;;;;;;34.50;16.25;;;;;;;-146.27;86.14;32598.97;5119552;27;20079;-69
2023/12/17 09:17:11;;;;;;;33.90;16.65;;;;;;;-146.27;86.32;32690.25;5117788;27;20607;-70
2023/12/17 09:19:36;;;;;;;33.72;17.50;;;;;;;-146.27;87.13;32747.78;5115932;27;20114;-69
2023/12/17 09:22:03;;;;;;;36.00;17.30;;;;;;;-146.27;87.24;32729.91;5115504;27;20046;-69
2023/12/17 09:24:29;;;;;;;39.45;16.70;;;;;;;-146.27;87.32;32720.00;5118784;27;20479;-69
2023/12/17 09:26:54;;;;;;;37.65;17.15;;;;;;;-146.27;86.09;32668.41;5121669;27;20407;-69
2023/12/17 09:29:20;;;;;;;35.67;18.25;;;;;;;-146.27;86.62;32763.63;5120050;27;20012;-71
2023/12/17 09:31:46;;;;;;;43.78;17.88;;;;;;;-146.27;86.18;32656.50;5123015;28;20027;-69
2023/12/17 09:34:14;;;;;;;35.85;17.60;;;;;;;-146.27;86.71;32723.97;5119537;28;20544;-68
2023/12/17 09:36:41;;;;;;;37.17;17.48;;;;;;;-146.27;87.19;32817.19;5121040;27;20027;-69
2023/12/17 09:39:07;;;;;;;35.15;18.17;;;;;;;-146.27;87.57;32843.00;5122236;27;20162;-70
2023/12/17 09:41:33;;;;;;;28.40;14.75;;;;;;;-146.27;86.67;32843.00;5117235;27;20106;-68
2023/12/17 09:43:59;;;;;;;28.88;13.80;;;;;;;-146.27;86.86;32914.41;5123114;28;20815;-70
2023/12/17 09:46:24;;;;;;;24.88;14.30;;;;;;;-146.27;86.74;32854.91;5127855;28;20056;-72
2023/12/17 09:48:50;;;;;;;25.27;14.32;;;;;;;-146.27;85.83;32763.63;5114929;27;20027;-68
2023/12/17 09:51:16;;;;;;;27.17;15.23;;;;;;;-146.27;84.86;32751.75;5116217;27;20153;-68
2023/12/17 09:53:42;;;;;;;31.13;13.95;;;;;;;-146.27;84.26;32604.94;5127002;27;20034;-70
2023/12/17 09:56:10;;;;;;;25.67;13.25;;;;;;;-146.27;84.77;32759.66;5118021;27;20027;-70
2023/12/17 09:58:35;;;;;;;31.92;16.70;;;;;;;-146.27;84.88;32664.44;5127683;27;20023;-70
2023/12/17 10:01:01;;;;;;;43.15;18.88;;;;;;;-146.27;84.83;32656.50;5128880;28;20031;-69
2023/12/17 10:03:26;;;;;;;41.95;20.10;;;;;;;-146.27;86.10;32779.50;5124004;28;20027;-69
2023/12/17 10:05:53;;;;;;;36.05;20.25;;;;;;;-146.27;86.21;32741.81;5125554;28;20072;-69
2023/12/17 10:08:20;;;;;;;42.97;20.85;;;;;;;-146.27;86.74;32874.75;5118780;28;20076;-69
2023/12/17 10:10:45;;;;;;;39.65;20.83;;;;;;;-146.27;87.33;32856.88;5118161;27;20023;-68
2023/12/17 10:13:16;;;;;;;48.05;22.33;;;;;;;-146.27;86.59;32854.91;5117817;27;20479;-69
2023/12/17 10:15:42;;;;;;;41.75;20.65;;;;;;;-146.27;87.72;32995.75;5113772;27;20019;-69
2023/12/17 10:18:08;;;;;;;41.53;21.30;;;;;;;-146.27;85.66;32745.78;5116304;28;20050;-70
2023/12/17 10:20:34;;;;;;;36.03;17.42;;;;;;;-146.27;86.99;32983.84;5122930;27;20051;-70
2023/12/17 10:23:03;;;;;;;34.38;17.48;;;;;;;-146.27;85.48;32809.28;5124741;27;20027;-70
2023/12/17 10:25:29;;;;;;;36.00;18.50;;;;;;;-146.27;84.95;32727.94;5119219;27;20015;-70
2023/12/17 10:27:57;;;;;;;33.30;15.68;;;;;;;-146.27;84.58;32727.94;5120000;27;20027;-70
2023/12/17 10:30:28;;;;;;;24.65;13.27;;;;;;;-146.27;86.30;32936.25;5128582;27;20049;-70
2023/12/17 10:32:57;;;;;;;27.92;15.50;;;;;;;-146.27;85.85;32835.06;5125978;27;20037;-72
2023/12/17 10:35:24;;;;;;;28.02;15.20;;;;;;;-146.27;85.57;32862.84;5120223;27;20457;-71
2023/12/17 10:37:56;;;;;;;33.30;17.73;;;;;;;-146.27;85.32;32739.84;5129986;27;20027;-71
2023/12/17 10:40:23;;;;;;;35.33;16.70;;;;;;;-146.27;85.26;32811.25;5119659;27;20115;-71
2023/12/17 10:42:49;;;;;;;33.72;16.75;;;;;;;-146.27;84.91;32799.34;5116751;27;20035;-71
2023/12/17 10:45:18;;;;;;;31.85;14.80;;;;;;;-146.27;85.30;32878.72;5116230;27;20031;-70
2023/12/17 10:47:45;;;;;;;33.75;16.40;;;;;;;-146.27;83.48;32763.63;5118339;27;20024;-70
2023/12/17 10:50:11;;;;;;;32.95;16.45;;;;;;;-146.27;84.05;32759.66;5127458;27;20469;-73
2023/12/17 10:52:39;;;;;;;25.90;14.90;;;;;;;-146.27;83.16;32664.44;5128077;27;20023;-72
2023/12/17 10:55:05;;;;;;;33.83;16.13;;;;;;;-146.27;82.44;32658.50;5125601;27;20035;-69
2023/12/17 10:57:34;;;;;;;33.72;16.08;;;;;;;-146.27;82.40;32581.13;5125130;27;20024;-70
2023/12/17 11:00:02;;;;;;;32.38;15.45;;;;;;;-146.27;82.90;32704.13;5127071;27;20028;-71
2023/12/17 11:02:28;;;;;;;37.20;15.10;;;;;;;-146.27;82.30;32589.06;5121167;27;20031;-70
2023/12/17 11:04:56;;;;;;;35.20;14.18;;;;;;;-146.27;83.16;32727.94;5133207;27;20035;-70